Terminal Aerodrome Forecast
Issued by NWS Buffalo, NY

Home | Current Version | Previous Version | Text Only | Print | Product List | Glossary On
Versions: 1 2 3 4 5 6 7 8 9 10 11 12 13 14 15 16 17 18 19 20 21 22 23 24 25
332
FTUS41 KBUF 181133
TAFROC
TAF
KROC 181133Z 1812/1912 27008KT P6SM -SHRA OVC008
     FM181400 27010KT P6SM OVC008
     FM181800 28009KT P6SM OVC012
     FM190300 25011G18KT P6SM BKN008=

USA.gov is the U.S. government's official web portal to all federal, state and local government web resources and services.